createdAt,value
2019-01-24T00:00:30.666Z,56.30
2019-01-24T00:02:58.719Z,59.77
2019-01-24T00:05:26.843Z,54.42
2019-01-24T00:07:54.926Z,50.48
2019-01-24T00:10:22.991Z,59.35
2019-01-24T00:12:51.047Z,54.33
2019-01-24T00:15:19.119Z,52.70
2019-01-24T00:17:47.173Z,54.45
2019-01-24T00:20:15.803Z,55.60
2019-01-24T00:22:44.296Z,54.73
2019-01-24T00:25:12.325Z,55.83
2019-01-24T00:27:40.392Z,55.52
2019-01-24T00:30:10.600Z,60.12
2019-01-24T00:32:38.732Z,57.00
2019-01-24T00:35:07.277Z,61.18
2019-01-24T00:37:35.345Z,57.80
2019-01-24T00:40:04.785Z,61.42
2019-01-24T00:42:32.841Z,57.58
2019-01-24T00:45:00.907Z,60.95
2019-01-24T00:47:28.947Z,60.98
2019-01-24T00:49:57.019Z,57.08
2019-01-24T00:52:25.078Z,65.05
2019-01-24T00:54:53.146Z,60.92
2019-01-24T00:57:21.230Z,65.17
2019-01-24T00:59:49.289Z,65.65
2019-01-24T01:02:17.352Z,60.55
2019-01-24T01:04:45.411Z,59.38
2019-01-24T01:07:13.525Z,57.60
2019-01-24T01:09:41.578Z,64.07
2019-01-24T01:12:09.808Z,58.85
2019-01-24T01:14:37.872Z,58.70
2019-01-24T01:17:05.944Z,57.65
2019-01-24T01:19:34.002Z,61.90
2019-01-24T01:22:02.450Z,58.45
2019-01-24T01:24:30.474Z,58.63
2019-01-24T01:26:58.537Z,59.55
2019-01-24T01:29:26.598Z,65.30
2019-01-24T01:31:54.670Z,61.77
2019-01-24T01:34:22.725Z,59.42
2019-01-24T01:36:50.838Z,58.42
2019-01-24T01:39:18.910Z,56.53
2019-01-24T01:41:46.960Z,63.35
2019-01-24T01:44:15.034Z,57.67
2019-01-24T01:46:43.081Z,57.62
2019-01-24T01:49:11.154Z,61.18
2019-01-24T01:51:39.971Z,60.58
2019-01-24T01:54:08.025Z,61.45
2019-01-24T01:56:36.077Z,67.95
2019-01-24T01:59:04.274Z,66.17
2019-01-24T02:01:32.347Z,66.17
2019-01-24T02:04:00.398Z,64.45
2019-01-24T02:06:28.473Z,59.08
2019-01-24T02:08:56.586Z,70.30
2019-01-24T02:11:24.638Z,63.48
2019-01-24T02:13:52.746Z,61.95
2019-01-24T02:16:20.802Z,63.75
2019-01-24T02:18:48.854Z,62.78
2019-01-24T02:21:16.910Z,62.50
2019-01-24T02:23:45.182Z,58.87
2019-01-24T02:26:13.276Z,59.18
2019-01-24T02:28:41.338Z,68.22
2019-01-24T02:31:09.395Z,61.08
2019-01-24T02:33:37.446Z,65.45
2019-01-24T02:36:05.522Z,64.07
2019-01-24T02:38:33.576Z,69.15
2019-01-24T02:41:01.651Z,71.53
2019-01-24T02:43:29.710Z,62.05
2019-01-24T02:45:57.772Z,64.10
2019-01-24T02:48:25.826Z,59.63
2019-01-24T02:50:53.899Z,68.12
2019-01-24T02:53:21.957Z,68.20
2019-01-24T02:55:50.024Z,63.52
2019-01-24T02:58:18.132Z,64.60
2019-01-24T03:00:46.190Z,59.08
2019-01-24T03:03:14.266Z,65.55
2019-01-24T03:05:42.366Z,71.07
2019-01-24T03:08:10.415Z,70.00
2019-01-24T03:10:38.487Z,64.67
2019-01-24T03:13:06.586Z,71.12
2019-01-24T03:15:34.714Z,64.53
2019-01-24T03:18:02.858Z,68.60
2019-01-24T03:20:30.936Z,62.23
2019-01-24T03:22:58.990Z,68.12
2019-01-24T03:25:27.138Z,73.05
2019-01-24T03:27:55.198Z,65.87
2019-01-24T03:30:23.309Z,74.72
2019-01-24T03:32:51.524Z,72.27
2019-01-24T03:35:20.877Z,69.12
2019-01-24T03:37:48.946Z,67.10
2019-01-24T03:40:17.175Z,59.58
2019-01-24T03:42:45.226Z,62.40
2019-01-24T03:45:14.463Z,64.17
2019-01-24T03:47:42.515Z,69.70
2019-01-24T03:50:12.047Z,65.87
2019-01-24T03:52:40.102Z,63.78
2019-01-24T03:55:09.514Z,66.87
2019-01-24T03:57:37.574Z,71.67
2019-01-24T04:00:09.839Z,62.60
2019-01-24T04:02:37.894Z,72.45
2019-01-24T04:05:11.797Z,77.90
2019-01-24T04:07:36.156Z,72.00
2019-01-24T04:10:05.751Z,78.50
2019-01-24T04:12:33.798Z,75.42
2019-01-24T04:15:01.855Z,70.90
2019-01-24T04:17:29.916Z,66.70
2019-01-24T04:19:58.006Z,64.53
2019-01-24T04:22:26.066Z,67.40
2019-01-24T04:24:54.139Z,83.80
2019-01-24T04:27:22.255Z,84.05
2019-01-24T04:29:50.322Z,64.50
2019-01-24T04:32:18.372Z,69.17
2019-01-24T04:34:46.454Z,66.40
2019-01-24T04:37:14.515Z,58.80
2019-01-24T04:39:42.571Z,74.03
2019-01-24T04:42:10.634Z,67.35
2019-01-24T04:44:38.690Z,70.55
2019-01-24T04:47:06.803Z,67.67
2019-01-24T04:49:34.934Z,74.40
2019-01-24T04:52:07.105Z,66.33
2019-01-24T04:54:35.115Z,64.87
2019-01-24T04:57:03.166Z,71.53
2019-01-24T04:59:31.242Z,66.85
2019-01-24T05:01:59.320Z,70.97
2019-01-24T05:04:27.366Z,65.25
2019-01-24T05:06:55.423Z,67.47
2019-01-24T05:09:23.480Z,73.50
2019-01-24T05:11:51.544Z,69.97
2019-01-24T05:14:19.623Z,101.72
2019-01-24T05:16:47.696Z,79.55
2019-01-24T05:19:15.760Z,81.10
2019-01-24T05:21:43.825Z,83.95
2019-01-24T05:24:11.974Z,72.85
2019-01-24T05:26:40.031Z,75.17
2019-01-24T05:29:08.106Z,70.52
2019-01-24T05:31:36.163Z,76.85
2019-01-24T05:34:04.297Z,76.15
2019-01-24T05:36:32.366Z,74.75
2019-01-24T05:39:00.420Z,72.87
2019-01-24T05:41:28.466Z,67.65
2019-01-24T05:43:56.542Z,76.70
2019-01-24T05:46:24.598Z,72.70
2019-01-24T05:48:52.646Z,77.55
2019-01-24T05:51:21.622Z,69.37
2019-01-24T05:53:49.759Z,77.25
2019-01-24T05:56:17.813Z,68.92
2019-01-24T05:58:45.889Z,73.10
2019-01-24T06:01:14.283Z,63.30
2019-01-24T06:03:42.409Z,66.05
2019-01-24T06:06:10.526Z,68.78
2019-01-24T06:08:38.593Z,70.67
2019-01-24T06:11:06.643Z,64.53
2019-01-24T06:13:34.758Z,71.85
2019-01-24T06:16:02.845Z,67.50
2019-01-24T06:18:30.904Z,69.70
2019-01-24T06:20:58.951Z,77.30
2019-01-24T06:23:27.004Z,68.05
2019-01-24T06:25:55.054Z,81.70
2019-01-24T06:28:23.107Z,74.17
2019-01-24T06:30:51.158Z,69.97
2019-01-24T06:33:19.498Z,77.35
2019-01-24T06:35:48.926Z,69.35
2019-01-24T06:38:17.125Z,69.92
2019-01-24T06:40:45.186Z,74.62
2019-01-24T06:43:13.233Z,70.83
2019-01-24T06:45:41.307Z,76.45
2019-01-24T06:48:09.378Z,70.03
2019-01-24T06:50:37.431Z,77.58
2019-01-24T06:53:05.474Z,78.87
2019-01-24T06:55:33.534Z,71.33
2019-01-24T06:58:01.586Z,73.37
2019-01-24T07:00:29.655Z,79.95
2019-01-24T07:02:57.795Z,81.22
2019-01-24T07:05:25.862Z,84.97
2019-01-24T07:07:53.967Z,79.22
2019-01-24T07:10:23.593Z,74.00
2019-01-24T07:12:51.750Z,79.42
2019-01-24T07:15:20.576Z,74.97
2019-01-24T07:17:49.017Z,77.58
2019-01-24T07:20:17.935Z,80.25
2019-01-24T07:22:46.081Z,73.75
2019-01-24T07:25:17.933Z,77.92
2019-01-24T07:27:45.982Z,82.55
2019-01-24T07:30:15.135Z,78.92
2019-01-24T07:32:43.215Z,74.87
2019-01-24T07:35:12.282Z,77.67
2019-01-24T07:37:40.330Z,83.27
2019-01-24T07:40:10.046Z,80.70
2019-01-24T07:42:38.385Z,68.85
2019-01-24T07:45:07.971Z,79.82
2019-01-24T07:47:36.030Z,81.02
2019-01-24T07:50:05.615Z,76.72
2019-01-24T07:52:33.662Z,79.07
2019-01-24T07:55:01.739Z,78.42
2019-01-24T07:57:29.786Z,89.20
2019-01-24T07:59:57.846Z,80.53
2019-01-24T08:02:25.907Z,77.70
2019-01-24T08:04:54.334Z,82.62
2019-01-24T08:07:22.431Z,86.17
2019-01-24T08:09:50.502Z,77.87
2019-01-24T08:12:18.558Z,80.53
2019-01-24T08:14:46.599Z,75.12
2019-01-24T08:17:14.666Z,79.58
2019-01-24T08:19:42.720Z,77.50
2019-01-24T08:22:10.770Z,77.27
2019-01-24T08:24:38.870Z,76.50
2019-01-24T08:27:06.918Z,85.22
2019-01-24T08:29:35.931Z,77.65
2019-01-24T08:32:04.151Z,81.72
2019-01-24T08:34:32.210Z,78.25
2019-01-24T08:37:00.262Z,84.03
2019-01-24T08:39:28.383Z,80.67
2019-01-24T08:41:56.451Z,73.60
2019-01-24T08:44:24.512Z,78.57
2019-01-24T08:46:52.571Z,80.40
2019-01-24T08:49:20.618Z,83.92
2019-01-24T08:51:52.233Z,74.00
2019-01-24T08:54:20.306Z,80.25
2019-01-24T08:56:48.358Z,73.75
2019-01-24T08:59:16.442Z,76.97
2019-01-24T09:01:44.494Z,73.45
2019-01-24T09:04:12.553Z,66.95
2019-01-24T09:06:40.646Z,77.97
2019-01-24T09:09:08.752Z,72.95
2019-01-24T09:11:38.097Z,76.15
2019-01-24T09:14:06.330Z,77.72
2019-01-24T09:16:34.451Z,80.75
2019-01-24T09:19:02.531Z,77.25
2019-01-24T09:21:30.590Z,76.90
2019-01-24T09:23:58.678Z,80.45
2019-01-24T09:26:26.718Z,82.50
2019-01-24T09:28:54.781Z,80.50
2019-01-24T09:31:22.826Z,78.17
2019-01-24T09:33:50.902Z,80.47
2019-01-24T09:36:19.022Z,83.25
2019-01-24T09:38:47.107Z,76.40
2019-01-24T09:41:15.178Z,74.75
2019-01-24T09:43:43.226Z,76.87
2019-01-24T09:46:11.294Z,76.70
2019-01-24T09:48:39.402Z,82.75
2019-01-24T09:51:07.454Z,84.07
2019-01-24T09:53:35.515Z,78.47
2019-01-24T09:56:03.994Z,79.87
2019-01-24T09:58:32.051Z,75.72
2019-01-24T10:01:00.113Z,80.03
2019-01-24T10:03:28.187Z,86.42
2019-01-24T10:05:56.242Z,71.60
2019-01-24T10:08:24.316Z,80.22
2019-01-24T10:10:52.427Z,86.15
2019-01-24T10:13:20.896Z,80.77
2019-01-24T10:15:48.982Z,84.65
2019-01-24T10:18:21.634Z,82.42
2019-01-24T10:20:46.827Z,88.80
2019-01-24T10:23:15.134Z,82.67
2019-01-24T10:25:43.210Z,87.10
2019-01-24T10:28:11.255Z,87.70
2019-01-24T10:30:42.961Z,83.33
2019-01-24T10:33:09.127Z,89.58
2019-01-24T10:35:37.256Z,98.07
2019-01-24T10:38:05.399Z,86.35
2019-01-24T10:40:33.452Z,79.80
2019-01-24T10:43:01.514Z,89.15
2019-01-24T10:45:29.604Z,93.82
2019-01-24T10:47:58.093Z,82.67
2019-01-24T10:50:27.095Z,86.30
2019-01-24T10:52:55.178Z,82.08
2019-01-24T10:55:24.200Z,90.92
2019-01-24T10:57:52.926Z,79.03
2019-01-24T11:00:22.374Z,84.83
2019-01-24T11:02:50.431Z,83.03
2019-01-24T11:05:19.476Z,90.03
2019-01-24T11:07:47.698Z,85.42
2019-01-24T11:10:17.032Z,83.35
2019-01-24T11:12:45.114Z,86.67
2019-01-24T11:15:14.878Z,86.37
2019-01-24T11:17:42.935Z,90.35
2019-01-24T11:20:12.481Z,79.65
2019-01-24T11:22:40.545Z,88.52
2019-01-24T11:25:10.406Z,87.80
2019-01-24T11:27:38.466Z,84.70
2019-01-24T11:30:11.061Z,94.58
2019-01-24T11:32:39.108Z,91.37
2019-01-24T11:35:08.690Z,88.25
2019-01-24T11:37:36.791Z,91.10
2019-01-24T11:40:06.436Z,83.75
2019-01-24T11:42:34.538Z,94.42
2019-01-24T11:45:02.601Z,87.05
2019-01-24T11:47:30.654Z,88.50
2019-01-24T11:49:58.715Z,84.77
2019-01-24T11:52:26.791Z,87.27
2019-01-24T11:54:54.848Z,95.32
2019-01-24T11:57:23.006Z,96.30
2019-01-24T11:59:51.055Z,92.10
2019-01-24T12:02:19.115Z,89.37
2019-01-24T12:04:47.171Z,88.47
2019-01-24T12:07:15.331Z,88.47
2019-01-24T12:09:43.399Z,85.10
2019-01-24T12:12:11.454Z,85.28
2019-01-24T12:14:39.526Z,79.00
2019-01-24T12:17:07.582Z,79.42
2019-01-24T12:19:35.645Z,90.72
2019-01-24T12:22:03.956Z,83.65
2019-01-24T12:24:32.018Z,82.60
2019-01-24T12:27:00.096Z,91.45
2019-01-24T12:29:28.163Z,81.12
2019-01-24T12:31:56.231Z,92.47
2019-01-24T12:34:24.300Z,94.10
2019-01-24T12:36:52.400Z,80.40
2019-01-24T12:39:20.469Z,83.78
2019-01-24T12:41:48.522Z,87.37
2019-01-24T12:44:16.680Z,79.82
2019-01-24T12:46:44.747Z,99.03
2019-01-24T12:49:12.815Z,87.82
2019-01-24T12:51:42.007Z,99.75
2019-01-24T12:54:10.778Z,91.32
2019-01-24T12:56:38.846Z,87.72
2019-01-24T12:59:06.912Z,86.15
2019-01-24T13:01:34.962Z,91.53
2019-01-24T13:04:03.027Z,87.80
2019-01-24T13:06:31.088Z,85.47
2019-01-24T13:08:59.166Z,83.00
2019-01-24T13:11:27.222Z,90.87
2019-01-24T13:13:55.285Z,94.00
2019-01-24T13:16:23.351Z,90.42
2019-01-24T13:18:51.486Z,96.57
2019-01-24T13:21:19.574Z,89.45
2019-01-24T13:23:47.682Z,92.33
2019-01-24T13:26:15.791Z,95.57
2019-01-24T13:28:43.859Z,96.90
2019-01-24T13:31:11.933Z,103.78
2019-01-24T13:33:39.987Z,88.62
2019-01-24T13:36:08.366Z,95.90
2019-01-24T13:38:36.417Z,93.03
2019-01-24T13:41:04.473Z,96.42
2019-01-24T13:43:32.538Z,99.90
2019-01-24T13:46:00.586Z,94.55
2019-01-24T13:48:28.663Z,100.15
2019-01-24T13:50:56.710Z,97.88
2019-01-24T13:53:24.774Z,92.57
2019-01-24T13:55:52.835Z,93.00
2019-01-24T13:58:20.891Z,96.30
2019-01-24T14:00:49.609Z,95.75
2019-01-24T14:03:19.311Z,87.15
2019-01-24T14:05:47.378Z,92.47
2019-01-24T14:08:15.455Z,90.83
2019-01-24T14:10:43.514Z,97.05
2019-01-24T14:13:11.594Z,97.57
2019-01-24T14:15:39.661Z,89.90
2019-01-24T14:18:07.713Z,87.22
2019-01-24T14:20:35.794Z,85.60
2019-01-24T14:23:04.222Z,82.15
2019-01-24T14:25:32.298Z,96.53
2019-01-24T14:28:00.373Z,97.08
2019-01-24T14:30:28.794Z,92.12
2019-01-24T14:32:56.855Z,87.60
2019-01-24T14:35:24.906Z,80.62
2019-01-24T14:37:52.958Z,86.63
2019-01-24T14:40:21.091Z,92.45
2019-01-24T14:42:49.169Z,95.60
2019-01-24T14:45:18.678Z,89.13
2019-01-24T14:47:46.767Z,79.27
2019-01-24T14:50:30.831Z,78.65
2019-01-24T14:52:58.889Z,84.17
2019-01-24T14:55:27.194Z,88.27
2019-01-24T14:57:55.258Z,88.55
2019-01-24T15:00:24.850Z,83.87
2019-01-24T15:02:53.106Z,83.80
2019-01-24T15:05:21.173Z,88.05
2019-01-24T15:07:49.219Z,91.15
2019-01-24T15:10:17.383Z,84.45
2019-01-24T15:12:45.416Z,85.62
2019-01-24T15:15:14.543Z,79.90
2019-01-24T15:17:42.642Z,85.57
2019-01-24T15:20:11.970Z,86.32
2019-01-24T15:22:40.043Z,85.67
2019-01-24T15:25:09.642Z,87.08
2019-01-24T15:27:37.706Z,82.62
2019-01-24T15:30:10.366Z,85.90
2019-01-24T15:32:38.423Z,89.20
2019-01-24T15:35:06.476Z,98.17
2019-01-24T15:37:34.612Z,97.25
2019-01-24T15:40:04.239Z,92.92
2019-01-24T15:42:32.295Z,94.77
2019-01-24T15:45:00.370Z,90.22
2019-01-24T15:47:28.434Z,97.50
2019-01-24T15:49:56.503Z,94.03
2019-01-24T15:52:24.563Z,87.42
2019-01-24T15:54:52.618Z,98.27
2019-01-24T15:57:20.762Z,87.80
2019-01-24T15:59:48.828Z,93.45
2019-01-24T16:02:16.900Z,90.80
2019-01-24T16:04:44.974Z,86.37
2019-01-24T16:07:13.018Z,88.55
2019-01-24T16:09:41.094Z,87.35
2019-01-24T16:12:09.143Z,91.15
2019-01-24T16:14:37.211Z,88.87
2019-01-24T16:17:05.335Z,84.65
2019-01-24T16:19:33.385Z,102.10
2019-01-24T16:22:01.469Z,93.25
2019-01-24T16:24:29.519Z,95.40
2019-01-24T16:26:57.734Z,93.22
2019-01-24T16:29:25.828Z,89.77
2019-01-24T16:31:53.974Z,83.07
2019-01-24T16:34:22.061Z,89.97
2019-01-24T16:36:50.118Z,95.55
2019-01-24T16:39:18.167Z,90.28
2019-01-24T16:41:46.239Z,97.80
2019-01-24T16:44:14.293Z,87.37
2019-01-24T16:46:42.362Z,88.15
2019-01-24T16:49:10.422Z,82.12
2019-01-24T16:51:38.497Z,84.58
2019-01-24T16:54:06.726Z,83.15
2019-01-24T16:56:34.842Z,80.75
2019-01-24T16:59:02.926Z,85.38
2019-01-24T17:01:31.037Z,87.10
2019-01-24T17:03:59.164Z,85.40
2019-01-24T17:06:27.235Z,88.22
2019-01-24T17:08:55.311Z,95.07
2019-01-24T17:11:23.405Z,92.33
2019-01-24T17:13:51.459Z,93.40
2019-01-24T17:16:19.530Z,88.90
2019-01-24T17:18:47.574Z,109.00
2019-01-24T17:21:15.650Z,97.02
2019-01-24T17:23:43.707Z,90.57
2019-01-24T17:26:11.756Z,95.05
2019-01-24T17:28:39.838Z,107.40
2019-01-24T17:31:07.890Z,106.70
2019-01-24T17:33:35.942Z,100.55
2019-01-24T17:36:04.487Z,102.02
2019-01-24T17:38:32.551Z,91.10
2019-01-24T17:41:00.620Z,88.22
2019-01-24T17:43:28.681Z,88.85
2019-01-24T17:45:56.746Z,92.67
2019-01-24T17:48:24.811Z,78.52
2019-01-24T17:50:52.866Z,88.42
2019-01-24T17:53:20.986Z,101.90
2019-01-24T17:55:49.047Z,90.60
2019-01-24T17:58:17.107Z,95.45
2019-01-24T18:00:49.481Z,97.10
2019-01-24T18:03:17.737Z,97.67
2019-01-24T18:05:45.822Z,99.35
2019-01-24T18:08:13.899Z,105.67
2019-01-24T18:10:41.956Z,101.18
2019-01-24T18:13:10.090Z,101.82
2019-01-24T18:15:38.230Z,106.12
2019-01-24T18:18:10.911Z,95.85
2019-01-24T18:20:39.034Z,103.32
2019-01-24T18:23:08.255Z,100.30
2019-01-24T18:25:36.374Z,109.83
2019-01-24T18:28:05.266Z,98.20
2019-01-24T18:30:33.331Z,103.67
2019-01-24T18:33:01.378Z,96.78
2019-01-24T18:35:30.515Z,98.07
2019-01-24T18:37:58.599Z,92.05
2019-01-24T18:40:27.890Z,93.52
2019-01-24T18:42:56.251Z,100.02
2019-01-24T18:45:26.087Z,106.20
2019-01-24T18:47:54.491Z,102.67
2019-01-24T18:50:22.570Z,98.70
2019-01-24T18:52:50.766Z,108.75
2019-01-24T18:55:18.851Z,105.97
2019-01-24T18:57:47.675Z,103.80
2019-01-24T19:00:18.842Z,102.95
2019-01-24T19:02:46.894Z,113.62
2019-01-24T19:05:15.046Z,101.33
2019-01-24T19:07:43.099Z,102.97
2019-01-24T19:10:12.128Z,109.22
2019-01-24T19:12:40.267Z,96.05
2019-01-24T19:15:10.102Z,95.67
2019-01-24T19:17:38.166Z,93.90
2019-01-24T19:20:07.979Z,95.60
2019-01-24T19:22:36.055Z,99.28
2019-01-24T19:25:05.646Z,94.72
2019-01-24T19:27:33.724Z,87.55
2019-01-24T19:30:01.799Z,94.70
2019-01-24T19:32:29.878Z,100.50
2019-01-24T19:34:57.915Z,105.05
2019-01-24T19:37:26.270Z,102.05
2019-01-24T19:39:54.680Z,107.80
2019-01-24T19:42:22.874Z,103.40
2019-01-24T19:44:51.116Z,100.40
2019-01-24T19:47:19.202Z,106.40
2019-01-24T19:49:47.287Z,103.47
2019-01-24T19:52:16.698Z,88.10
2019-01-24T19:54:44.765Z,96.10
2019-01-24T19:57:13.447Z,99.62
2019-01-24T19:59:41.670Z,93.45
2019-01-24T20:02:09.876Z,80.65
2019-01-24T20:04:38.298Z,86.57
2019-01-24T20:07:06.636Z,79.25
2019-01-24T20:09:34.750Z,73.02
2019-01-24T20:12:03.322Z,81.63
2019-01-24T20:14:31.331Z,76.10
2019-01-24T20:16:59.670Z,51.98
2019-01-24T20:19:27.734Z,52.85
2019-01-24T20:21:55.864Z,46.30
2019-01-24T20:24:24.455Z,44.88
2019-01-24T20:26:52.599Z,55.03
2019-01-24T20:29:20.650Z,50.50
2019-01-24T20:31:48.710Z,49.77
2019-01-24T20:34:16.789Z,48.85
2019-01-24T20:36:44.855Z,44.65
2019-01-24T20:39:12.938Z,45.00
2019-01-24T20:41:41.002Z,44.63
2019-01-24T20:44:09.061Z,46.53
2019-01-24T20:46:37.125Z,44.03
2019-01-24T20:49:05.186Z,42.27
2019-01-24T20:51:33.243Z,45.88
2019-01-24T20:54:01.295Z,43.90
2019-01-24T20:56:29.367Z,38.48
2019-01-24T20:58:57.422Z,41.20
2019-01-24T21:01:25.481Z,44.08
2019-01-24T21:03:55.495Z,42.85
2019-01-24T21:06:23.319Z,49.33
2019-01-24T21:08:51.376Z,41.23
2019-01-24T21:11:19.471Z,39.78
2019-01-24T21:13:47.528Z,43.92
2019-01-24T21:16:15.591Z,45.10
2019-01-24T21:18:43.650Z,45.75
2019-01-24T21:21:11.742Z,42.98
2019-01-24T21:23:39.791Z,45.58
2019-01-24T21:26:07.907Z,41.05
2019-01-24T21:28:35.965Z,44.65
2019-01-24T21:31:04.202Z,47.65
2019-01-24T21:33:32.260Z,46.25
2019-01-24T21:36:00.322Z,43.20
2019-01-24T21:38:28.450Z,38.95
2019-01-24T21:40:56.498Z,46.10
2019-01-24T21:43:24.583Z,44.10
2019-01-24T21:45:52.642Z,41.83
2019-01-24T21:48:20.747Z,42.58
2019-01-24T21:50:48.913Z,43.30
2019-01-24T21:53:16.994Z,44.05
2019-01-24T21:55:45.066Z,45.90
2019-01-24T21:58:13.122Z,45.15
2019-01-24T22:00:41.177Z,48.70
2019-01-24T22:03:09.265Z,45.92
2019-01-24T22:05:37.469Z,42.10
2019-01-24T22:08:05.691Z,39.27
2019-01-24T22:10:33.836Z,37.53
2019-01-24T22:13:01.898Z,41.18
2019-01-24T22:15:30.548Z,42.95
2019-01-24T22:17:58.975Z,44.00
2019-01-24T22:20:27.216Z,40.60
2019-01-24T22:22:55.268Z,45.43
2019-01-24T22:25:33.242Z,42.95
2019-01-24T22:28:01.374Z,44.38
2019-01-24T22:30:35.174Z,42.75
2019-01-24T22:33:03.252Z,41.73
2019-01-24T22:35:31.334Z,44.27
2019-01-24T22:37:59.399Z,43.68
2019-01-24T22:40:27.543Z,42.48
2019-01-24T22:42:55.667Z,45.90
2019-01-24T22:45:24.498Z,44.83
2019-01-24T22:47:52.619Z,43.60
2019-01-24T22:50:21.050Z,46.08
2019-01-24T22:52:49.118Z,46.88
2019-01-24T22:55:17.247Z,42.98
2019-01-24T22:57:45.517Z,47.50
2019-01-24T23:00:45.914Z,44.15
2019-01-24T23:03:14.599Z,50.70
2019-01-24T23:05:42.706Z,48.50
2019-01-24T23:08:10.998Z,42.53
2019-01-24T23:10:39.063Z,46.70
2019-01-24T23:13:07.113Z,48.20
2019-01-24T23:15:35.166Z,48.75
2019-01-24T23:18:03.418Z,51.70
2019-01-24T23:20:31.502Z,48.30
2019-01-24T23:22:59.563Z,48.75
2019-01-24T23:25:27.626Z,47.15
2019-01-24T23:27:55.694Z,51.10
2019-01-24T23:30:23.753Z,51.02
2019-01-24T23:32:51.810Z,50.08
2019-01-24T23:35:19.884Z,47.62
2019-01-24T23:37:52.343Z,51.73
2019-01-24T23:40:17.786Z,49.38
2019-01-24T23:42:45.847Z,50.23
2019-01-24T23:45:13.910Z,53.68
2019-01-24T23:47:41.974Z,50.40
2019-01-24T23:50:12.790Z,56.13
2019-01-24T23:52:40.899Z,49.70
2019-01-24T23:55:08.937Z,55.20
2019-01-24T23:57:37.008Z,55.23
